createdAt,value
2023-01-07T00:01:45.172Z,10.20
2023-01-07T00:04:15.096Z,10.80
2023-01-07T00:06:43.932Z,10.43
2023-01-07T00:09:14.719Z,9.97
2023-01-07T00:11:42.060Z,9.43
2023-01-07T00:14:11.324Z,9.73
2023-01-07T00:16:39.106Z,9.30
2023-01-07T00:19:08.218Z,9.10
2023-01-07T00:21:35.293Z,9.40
2023-01-07T00:24:05.273Z,10.03
2023-01-07T00:26:37.191Z,9.70
2023-01-07T00:29:05.544Z,10.23
2023-01-07T00:31:35.588Z,10.43
2023-01-07T00:34:02.998Z,9.80
2023-01-07T00:36:32.844Z,11.27
2023-01-07T00:39:06.111Z,9.63
2023-01-07T00:41:33.425Z,9.53
2023-01-07T00:44:00.652Z,9.47
2023-01-07T00:46:27.843Z,9.60
2023-01-07T00:48:54.890Z,10.07
2023-01-07T00:51:21.941Z,10.40
2023-01-07T00:53:49.040Z,10.17
2023-01-07T00:56:20.372Z,9.80
2023-01-07T00:58:47.434Z,10.10
2023-01-07T01:01:15.957Z,9.67
2023-01-07T01:03:42.987Z,9.63
2023-01-07T01:06:16.472Z,10.23
2023-01-07T01:08:45.646Z,10.87
2023-01-07T01:11:14.857Z,9.83
2023-01-07T01:13:43.556Z,10.10
2023-01-07T01:16:14.735Z,10.07
2023-01-07T01:18:42.609Z,9.87
2023-01-07T01:21:12.288Z,11.40
2023-01-07T01:23:39.936Z,10.67
2023-01-07T01:26:09.501Z,10.70
2023-01-07T01:28:36.631Z,10.80
2023-01-07T01:31:04.602Z,10.73
2023-01-07T01:33:41.866Z,10.27
2023-01-07T01:36:12.120Z,9.17
2023-01-07T01:38:40.242Z,9.60
2023-01-07T01:41:07.541Z,9.13
2023-01-07T01:43:40.603Z,8.23
2023-01-07T01:46:30.125Z,7.83
2023-01-07T01:49:01.695Z,7.10
2023-01-07T01:51:34.810Z,7.37
2023-01-07T01:54:05.383Z,8.50
2023-01-07T01:56:36.020Z,8.03
2023-01-07T01:59:09.256Z,8.03
2023-01-07T02:01:39.069Z,8.02
2023-01-07T02:04:15.545Z,8.27
2023-01-07T02:07:11.874Z,9.40
2023-01-07T02:09:43.777Z,7.73
2023-01-07T02:12:33.219Z,8.37
2023-01-07T02:15:09.891Z,8.13
2023-01-07T02:17:36.921Z,7.87
2023-01-07T02:20:09.990Z,8.60
2023-01-07T02:26:06.807Z,8.40
2023-01-07T02:29:01.977Z,8.77
2023-01-07T02:32:04.872Z,7.60
2023-01-07T02:34:55.664Z,7.80
2023-01-07T02:37:41.788Z,8.17
2023-01-07T02:40:20.563Z,8.65
2023-01-07T02:43:17.031Z,8.47
2023-01-07T02:45:56.887Z,8.60
2023-01-07T02:48:25.783Z,8.83
2023-01-07T02:50:52.839Z,7.80
2023-01-07T02:53:21.183Z,9.20
2023-01-07T02:56:31.341Z,8.77
2023-01-07T02:59:09.462Z,7.83
2023-01-07T03:01:52.123Z,7.47
2023-01-07T03:04:34.455Z,7.70
2023-01-07T03:07:01.353Z,8.27
2023-01-07T03:10:05.811Z,8.13
2023-01-07T03:12:50.262Z,7.80
2023-01-07T03:15:29.264Z,8.27
2023-01-07T03:18:04.620Z,8.73
2023-01-07T03:20:35.750Z,8.07
2023-01-07T03:23:07.054Z,8.50
2023-01-07T03:25:39.661Z,8.87
2023-01-07T03:28:08.079Z,9.63
2023-01-07T03:30:37.177Z,9.70
2023-01-07T03:33:27.634Z,9.93
2023-01-07T03:35:59.668Z,9.37
2023-01-07T03:38:27.960Z,9.80
2023-01-07T03:40:55.727Z,11.20
2023-01-07T03:43:23.469Z,10.93
2023-01-07T03:45:52.445Z,10.87
2023-01-07T03:48:19.723Z,8.37
2023-01-07T03:50:48.555Z,9.03
2023-01-07T03:53:15.779Z,8.50
2023-01-07T03:55:45.733Z,8.27
2023-01-07T03:58:13.720Z,8.40
2023-01-07T04:00:40.655Z,8.33
2023-01-07T04:03:14.542Z,8.47
2023-01-07T04:05:45.236Z,8.43
2023-01-07T04:08:13.059Z,7.30
2023-01-07T04:10:41.010Z,7.90
2023-01-07T04:13:08.643Z,7.17
2023-01-07T04:15:36.431Z,7.23
2023-01-07T04:18:03.650Z,7.30
2023-01-07T04:20:31.119Z,8.93
2023-01-07T04:22:58.142Z,7.67
2023-01-07T04:25:25.119Z,8.57
2023-01-07T04:27:52.237Z,7.47
2023-01-07T04:30:19.216Z,7.33
2023-01-07T04:32:46.246Z,8.60
2023-01-07T04:35:13.207Z,7.17
2023-01-07T04:37:40.192Z,7.53
2023-01-07T04:40:08.145Z,8.60
2023-01-07T04:42:36.752Z,8.00
2023-01-07T04:45:05.459Z,7.60
2023-01-07T04:47:32.469Z,7.97
2023-01-07T04:49:59.936Z,7.93
2023-01-07T04:52:31.068Z,7.87
2023-01-07T04:54:58.478Z,7.63
2023-01-07T04:57:25.669Z,7.93
2023-01-07T04:59:54.301Z,7.60
2023-01-07T05:02:21.522Z,7.20
2023-01-07T05:04:48.963Z,8.10
2023-01-07T05:07:18.016Z,8.83
2023-01-07T05:09:45.462Z,9.17
2023-01-07T05:12:13.888Z,8.27
2023-01-07T05:14:42.825Z,8.37
2023-01-07T05:17:10.006Z,9.43
2023-01-07T05:19:38.362Z,9.03
2023-01-07T05:22:05.394Z,8.23
2023-01-07T05:24:36.726Z,8.47
2023-01-07T05:27:03.843Z,7.50
2023-01-07T05:29:30.958Z,8.60
2023-01-07T05:31:57.956Z,9.77
2023-01-07T05:34:25.767Z,8.97
2023-01-07T05:36:52.925Z,9.73
2023-01-07T05:39:19.965Z,7.87
2023-01-07T05:41:47.019Z,8.20
2023-01-07T05:44:14.076Z,8.23
2023-01-07T05:46:41.083Z,7.87
2023-01-07T05:49:08.237Z,8.33
2023-01-07T05:51:35.724Z,8.03
2023-01-07T05:54:02.733Z,7.90
2023-01-07T05:56:29.743Z,8.00
2023-01-07T05:58:56.760Z,8.80
2023-01-07T06:01:23.774Z,8.50
2023-01-07T06:03:50.816Z,7.13
2023-01-07T06:06:17.977Z,7.80
2023-01-07T06:08:45.121Z,7.67
2023-01-07T06:11:12.069Z,8.17
2023-01-07T06:13:39.195Z,8.17
2023-01-07T06:16:09.189Z,8.37
2023-01-07T06:18:36.634Z,8.20
2023-01-07T06:21:03.756Z,8.40
2023-01-07T06:23:31.539Z,9.03
2023-01-07T06:25:58.608Z,8.00
2023-01-07T06:28:25.636Z,7.63
2023-01-07T06:30:52.662Z,8.57
2023-01-07T06:33:19.751Z,9.37
2023-01-07T06:35:47.041Z,8.57
2023-01-07T06:38:14.140Z,8.47
2023-01-07T06:40:41.186Z,8.30
2023-01-07T06:43:08.165Z,8.00
2023-01-07T06:45:35.122Z,8.27
2023-01-07T06:48:02.651Z,9.00
2023-01-07T06:50:29.733Z,8.90
2023-01-07T06:52:57.043Z,8.67
2023-01-07T06:55:24.135Z,7.80
2023-01-07T06:57:51.098Z,8.20
2023-01-07T07:00:18.255Z,7.87
2023-01-07T07:02:45.277Z,7.77
2023-01-07T07:05:12.783Z,8.07
2023-01-07T07:07:39.814Z,8.47
2023-01-07T07:10:08.464Z,8.47
2023-01-07T07:12:37.042Z,8.97
2023-01-07T07:15:06.071Z,8.60
2023-01-07T07:17:34.839Z,8.40
2023-01-07T07:20:02.047Z,8.23
2023-01-07T07:22:30.600Z,8.53
2023-01-07T07:24:57.638Z,9.17
2023-01-07T07:27:24.591Z,8.50
2023-01-07T07:29:51.559Z,8.77
2023-01-07T07:32:18.476Z,8.60
2023-01-07T07:34:45.461Z,9.13
2023-01-07T07:37:12.463Z,9.07
2023-01-07T07:39:39.374Z,8.67
2023-01-07T07:42:06.423Z,9.67
2023-01-07T07:44:33.469Z,8.83
2023-01-07T07:47:00.432Z,9.87
2023-01-07T07:49:27.426Z,8.73
2023-01-07T07:51:54.482Z,9.93
2023-01-07T07:54:23.810Z,9.93
2023-01-07T07:56:51.322Z,8.77
2023-01-07T07:59:18.311Z,8.40
2023-01-07T08:01:45.364Z,9.23
2023-01-07T08:04:12.375Z,9.47
2023-01-07T08:06:39.421Z,8.30
2023-01-07T08:09:06.403Z,8.20
2023-01-07T08:11:33.398Z,8.63
2023-01-07T08:14:00.460Z,8.63
2023-01-07T08:16:27.967Z,8.47
2023-01-07T08:18:54.990Z,8.17
2023-01-07T08:21:21.981Z,7.97
2023-01-07T08:23:48.939Z,8.07
2023-01-07T08:26:15.912Z,9.17
2023-01-07T08:28:43.767Z,9.20
2023-01-07T08:31:12.210Z,8.47
2023-01-07T08:33:39.963Z,8.90
2023-01-07T08:36:18.111Z,8.57
2023-01-07T08:38:53.109Z,9.03
2023-01-07T08:41:22.099Z,9.27
2023-01-07T08:43:49.166Z,8.40
2023-01-07T08:46:16.427Z,9.23
2023-01-07T08:48:43.467Z,8.17
2023-01-07T08:51:10.451Z,8.87
2023-01-07T08:53:37.447Z,7.90
2023-01-07T08:56:04.655Z,8.93
2023-01-07T08:58:31.622Z,9.47
2023-01-07T09:01:04.160Z,8.97
2023-01-07T09:03:31.428Z,9.07
2023-01-07T09:05:58.999Z,9.40
2023-01-07T09:08:26.079Z,9.30
2023-01-07T09:10:53.030Z,10.40
2023-01-07T09:13:19.932Z,9.00
2023-01-07T09:15:46.853Z,9.23
2023-01-07T09:18:13.823Z,10.37
2023-01-07T09:20:40.792Z,10.43
2023-01-07T09:23:08.230Z,10.43
2023-01-07T09:25:35.188Z,11.77
2023-01-07T09:28:02.123Z,10.43
2023-01-07T09:30:29.173Z,11.73
2023-01-07T09:32:56.231Z,10.60
2023-01-07T09:35:23.445Z,10.17
2023-01-07T09:37:50.503Z,9.47
2023-01-07T09:40:35.756Z,8.53
2023-01-07T09:43:14.387Z,9.33
2023-01-07T09:45:55.469Z,8.73
2023-01-07T09:48:32.195Z,9.40
2023-01-07T09:51:01.863Z,9.03
2023-01-07T09:53:41.608Z,9.00
2023-01-07T09:56:20.169Z,8.97
2023-01-07T09:58:48.788Z,9.00
2023-01-07T10:01:37.495Z,9.97
2023-01-07T10:04:26.268Z,9.13
2023-01-07T10:07:31.862Z,10.80
2023-01-07T10:10:01.472Z,11.37
2023-01-07T10:12:35.950Z,10.83
2023-01-07T10:15:17.995Z,10.70
2023-01-07T10:17:57.139Z,9.97
2023-01-07T10:20:45.692Z,10.07
2023-01-07T10:23:37.556Z,10.33
2023-01-07T10:26:11.230Z,12.27
2023-01-07T10:29:25.684Z,11.57
2023-01-07T10:31:58.013Z,10.60
2023-01-07T10:34:38.727Z,11.90
2023-01-07T10:37:46.079Z,11.07
2023-01-07T10:40:22.195Z,10.98
2023-01-07T10:43:05.021Z,11.05
2023-01-07T10:45:48.047Z,12.03
2023-01-07T10:48:39.398Z,12.50
2023-01-07T10:51:27.729Z,11.60
2023-01-07T10:54:13.097Z,11.90
2023-01-07T10:56:45.330Z,11.80
2023-01-07T10:59:18.273Z,10.07
2023-01-07T11:01:59.498Z,11.30
2023-01-07T11:04:27.163Z,11.20
2023-01-07T11:06:59.820Z,10.20
2023-01-07T11:09:31.551Z,11.40
2023-01-07T11:12:03.141Z,10.73
2023-01-07T11:14:36.183Z,10.63
2023-01-07T11:17:17.208Z,11.37
2023-01-07T11:19:51.608Z,10.60
2023-01-07T11:22:27.467Z,11.27
2023-01-07T11:24:56.138Z,10.98
2023-01-07T11:27:29.431Z,11.73
2023-01-07T11:30:05.164Z,11.00
2023-01-07T11:32:38.674Z,13.15
2023-01-07T11:35:18.247Z,12.43
2023-01-07T11:37:48.028Z,10.83
2023-01-07T11:40:17.341Z,12.80
2023-01-07T11:43:00.663Z,12.10
2023-01-07T11:45:30.905Z,11.20
2023-01-07T11:48:14.922Z,10.63
2023-01-07T11:50:57.443Z,11.55
2023-01-07T11:53:37.278Z,10.97
2023-01-07T11:56:08.482Z,12.20
2023-01-07T11:58:41.285Z,11.03
2023-01-07T12:01:08.877Z,11.30
2023-01-07T12:03:42.112Z,12.80
2023-01-07T12:06:25.430Z,13.20
2023-01-07T12:09:00.610Z,12.77
2023-01-07T12:11:36.766Z,11.17
2023-01-07T12:14:09.228Z,11.55
2023-01-07T12:16:38.823Z,11.17
2023-01-07T12:19:39.681Z,12.17
2023-01-07T12:22:33.605Z,11.37
2023-01-07T12:25:37.078Z,13.00
2023-01-07T12:28:06.729Z,12.37
2023-01-07T12:31:15.343Z,12.77
2023-01-07T12:33:57.384Z,10.87
2023-01-07T12:36:41.580Z,10.57
2023-01-07T12:39:19.652Z,11.17
2023-01-07T12:41:56.604Z,11.23
2023-01-07T12:44:58.451Z,12.07
2023-01-07T12:47:52.690Z,11.48
2023-01-07T12:50:35.835Z,11.00
2023-01-07T12:53:31.065Z,11.70
2023-01-07T12:59:51.858Z,12.30
2023-01-07T13:03:04.530Z,12.80
2023-01-07T13:05:45.417Z,12.00
2023-01-07T13:08:16.072Z,12.73
2023-01-07T13:10:48.047Z,13.93
2023-01-07T13:13:52.098Z,12.97
2023-01-07T13:16:19.588Z,14.70
2023-01-07T13:18:46.870Z,14.77
2023-01-07T13:21:16.148Z,14.00
2023-01-07T13:24:01.519Z,15.00
2023-01-07T13:26:51.257Z,13.63
2023-01-07T13:29:54.776Z,13.03
2023-01-07T13:32:52.762Z,13.90
2023-01-07T13:35:39.946Z,14.30
2023-01-07T13:38:28.333Z,14.73
2023-01-07T13:41:27.736Z,14.57
2023-01-07T13:44:10.113Z,14.57
2023-01-07T13:46:41.836Z,14.40
2023-01-07T13:49:30.674Z,14.47
2023-01-07T13:52:22.037Z,15.20
2023-01-07T13:54:49.261Z,14.40
2023-01-07T13:57:31.518Z,15.00
2023-01-07T14:00:00.635Z,14.67
2023-01-07T14:02:57.585Z,15.17
2023-01-07T14:05:27.264Z,15.20
2023-01-07T14:08:01.615Z,14.73
2023-01-07T14:10:36.390Z,12.77
2023-01-07T14:13:30.428Z,14.40
2023-01-07T14:16:12.087Z,14.13
2023-01-07T14:18:48.063Z,14.37
2023-01-07T14:21:31.378Z,12.85
2023-01-07T14:24:13.816Z,14.07
2023-01-07T14:27:09.192Z,13.50
2023-01-07T14:29:46.919Z,13.73
2023-01-07T14:32:37.175Z,14.17
2023-01-07T14:35:20.222Z,13.83
2023-01-07T14:37:48.528Z,12.93
2023-01-07T14:40:29.307Z,13.27
2023-01-07T14:42:58.167Z,12.70
2023-01-07T14:45:37.167Z,13.57
2023-01-07T14:48:10.252Z,12.83
2023-01-07T14:50:49.436Z,13.03
2023-01-07T14:53:16.402Z,14.63
2023-01-07T14:55:52.748Z,13.00
2023-01-07T15:01:28.007Z,13.20
2023-01-07T15:04:32.767Z,12.70
2023-01-07T15:07:01.374Z,13.80
2023-01-07T15:10:03.340Z,14.00
2023-01-07T15:13:13.502Z,13.97
2023-01-07T15:16:04.278Z,14.83
2023-01-07T15:18:34.740Z,15.47
2023-01-07T15:21:18.890Z,15.90
2023-01-07T15:23:54.546Z,16.60
2023-01-07T15:26:28.917Z,15.75
2023-01-07T15:29:09.523Z,15.87
2023-01-07T15:31:45.623Z,15.70
2023-01-07T15:34:17.237Z,19.25
2023-01-07T15:36:48.139Z,17.47
2023-01-07T15:39:25.297Z,15.27
2023-01-07T15:41:57.009Z,15.00
2023-01-07T15:44:28.996Z,15.57
2023-01-07T15:46:56.370Z,14.73
2023-01-07T15:49:25.227Z,15.17
2023-01-07T15:51:59.754Z,14.80
2023-01-07T15:54:32.799Z,14.70
2023-01-07T15:57:05.243Z,16.77
2023-01-07T15:59:35.447Z,14.50
2023-01-07T16:02:25.118Z,16.07
2023-01-07T16:04:55.168Z,16.20
2023-01-07T16:07:28.336Z,15.27
2023-01-07T16:09:57.038Z,15.13
2023-01-07T16:12:38.587Z,14.63
2023-01-07T16:15:28.138Z,15.07
2023-01-07T16:18:01.403Z,16.03
2023-01-07T16:20:32.531Z,15.30
2023-01-07T16:23:08.367Z,16.30
2023-01-07T16:25:38.198Z,14.05
2023-01-07T16:28:05.987Z,13.57
2023-01-07T16:30:41.469Z,14.63
2023-01-07T16:33:14.239Z,15.13
2023-01-07T16:35:41.609Z,14.60
2023-01-07T16:38:09.452Z,15.70
2023-01-07T16:40:38.926Z,15.00
2023-01-07T16:43:30.460Z,15.20
2023-01-07T16:46:18.912Z,14.93
2023-01-07T16:48:50.173Z,15.20
2023-01-07T16:51:42.078Z,15.60
2023-01-07T16:54:19.579Z,15.40
2023-01-07T16:56:54.950Z,15.97
2023-01-07T16:59:26.318Z,14.57
2023-01-07T17:01:53.879Z,16.23
2023-01-07T17:04:30.001Z,16.27
2023-01-07T17:06:59.386Z,15.83
2023-01-07T17:09:33.386Z,15.13
2023-01-07T17:12:00.367Z,15.93
2023-01-07T17:14:33.631Z,14.33
2023-01-07T17:17:17.095Z,15.10
2023-01-07T17:20:14.669Z,16.33
2023-01-07T17:22:42.719Z,15.47
2023-01-07T17:25:28.512Z,15.50
2023-01-07T17:28:00.006Z,16.50
2023-01-07T17:30:36.137Z,15.67
2023-01-07T17:33:03.931Z,16.02
2023-01-07T17:35:30.935Z,17.73
2023-01-07T17:37:58.048Z,17.13
2023-01-07T17:40:25.110Z,16.10
2023-01-07T17:43:10.551Z,16.10
2023-01-07T17:45:37.607Z,17.17
2023-01-07T17:48:13.632Z,17.37
2023-01-07T17:50:41.506Z,17.27
2023-01-07T17:53:21.785Z,16.60
2023-01-07T17:55:48.860Z,15.67
2023-01-07T17:58:29.055Z,17.33
2023-01-07T18:00:57.360Z,16.47
2023-01-07T18:03:25.310Z,16.20
2023-01-07T18:05:52.522Z,15.60
2023-01-07T18:08:19.646Z,17.33
2023-01-07T18:11:05.575Z,17.87
2023-01-07T18:13:32.553Z,16.63
2023-01-07T18:15:59.654Z,16.73
2023-01-07T18:18:30.430Z,18.57
2023-01-07T18:20:58.153Z,17.23
2023-01-07T18:23:25.583Z,17.23
2023-01-07T18:25:52.734Z,17.10
2023-01-07T18:28:19.725Z,15.50
2023-01-07T18:30:46.673Z,17.07
2023-01-07T18:33:13.635Z,16.73
2023-01-07T18:35:43.423Z,17.87
2023-01-07T18:38:14.545Z,18.90
2023-01-07T18:40:41.789Z,17.00
2023-01-07T18:43:14.351Z,19.07
2023-01-07T18:45:43.220Z,18.07
2023-01-07T18:48:11.936Z,16.97
2023-01-07T18:50:43.430Z,18.10
2023-01-07T18:53:11.193Z,17.20
2023-01-07T18:55:40.382Z,16.83
2023-01-07T18:58:08.823Z,17.40
2023-01-07T19:00:36.129Z,17.83
2023-01-07T19:03:03.404Z,15.83
2023-01-07T19:05:30.695Z,16.37
2023-01-07T19:07:57.815Z,16.93
2023-01-07T19:10:25.984Z,16.27
2023-01-07T19:12:53.259Z,19.30
2023-01-07T19:15:20.379Z,18.13
2023-01-07T19:17:47.341Z,17.73
2023-01-07T19:20:15.486Z,17.77
2023-01-07T19:22:42.834Z,17.33
2023-01-07T19:25:10.159Z,16.63
2023-01-07T19:27:37.420Z,15.80
2023-01-07T19:30:05.782Z,14.97
2023-01-07T19:32:32.931Z,15.47
2023-01-07T19:35:01.072Z,14.63
2023-01-07T19:37:28.579Z,15.67
2023-01-07T19:39:55.593Z,15.07
2023-01-07T19:42:22.587Z,15.50
2023-01-07T19:44:49.602Z,14.77
2023-01-07T19:47:17.424Z,15.17
2023-01-07T19:49:45.467Z,14.27
2023-01-07T19:52:13.776Z,14.63
2023-01-07T19:54:41.915Z,14.50
2023-01-07T19:57:09.309Z,13.40
2023-01-07T19:59:36.441Z,14.33
2023-01-07T20:02:04.747Z,14.63
2023-01-07T20:04:31.862Z,14.63
2023-01-07T20:06:58.964Z,13.87
2023-01-07T20:09:27.937Z,14.57
2023-01-07T20:11:54.942Z,15.90
2023-01-07T20:14:22.007Z,13.70
2023-01-07T20:16:49.121Z,14.40
2023-01-07T20:19:16.239Z,14.57
2023-01-07T20:21:43.220Z,13.30
2023-01-07T20:24:12.535Z,12.63
2023-01-07T20:26:39.560Z,12.60
2023-01-07T20:29:06.593Z,13.63
2023-01-07T20:31:33.672Z,13.73
2023-01-07T20:34:00.746Z,12.83
2023-01-07T20:36:30.243Z,13.30
2023-01-07T20:38:57.618Z,12.87
2023-01-07T20:41:26.520Z,13.73
2023-01-07T20:43:59.356Z,13.87
2023-01-07T20:46:28.587Z,12.70
2023-01-07T20:48:56.177Z,12.50
2023-01-07T20:51:23.404Z,12.97
2023-01-07T20:53:50.640Z,12.27
2023-01-07T20:56:22.885Z,13.50
2023-01-07T20:58:50.525Z,11.97
2023-01-07T21:01:20.690Z,11.80
2023-01-07T21:03:48.101Z,12.93
2023-01-07T21:06:17.692Z,11.73
2023-01-07T21:08:46.941Z,12.90
2023-01-07T21:11:17.063Z,12.63
2023-01-07T21:13:44.340Z,13.27
2023-01-07T21:16:12.357Z,12.50
2023-01-07T21:18:40.021Z,12.27
2023-01-07T21:21:19.177Z,12.20
2023-01-07T21:23:49.527Z,13.87
2023-01-07T21:26:17.778Z,13.13
2023-01-07T21:28:45.555Z,11.93
2023-01-07T21:31:15.445Z,14.77
2023-01-07T21:33:43.566Z,13.83
2023-01-07T21:36:12.949Z,14.13
2023-01-07T21:38:40.177Z,13.43
2023-01-07T21:44:52.506Z,13.70
2023-01-07T21:47:19.539Z,12.90
2023-01-07T21:49:46.491Z,12.37
2023-01-07T21:52:13.523Z,12.20
2023-01-07T21:54:40.498Z,13.17
2023-01-07T21:57:07.483Z,13.13
2023-01-07T21:59:34.554Z,13.37
2023-01-07T22:02:01.890Z,12.67
2023-01-07T22:04:29.291Z,12.47
2023-01-07T22:06:56.723Z,12.97
2023-01-07T22:09:25.412Z,12.13
2023-01-07T22:11:52.508Z,13.50
2023-01-07T22:14:19.658Z,12.53
2023-01-07T22:16:49.319Z,12.80
2023-01-07T22:19:16.468Z,13.40
2023-01-07T22:21:43.502Z,13.40
2023-01-07T22:24:10.776Z,13.13
2023-01-07T22:26:38.296Z,13.33
2023-01-07T22:29:07.945Z,11.93
2023-01-07T22:31:36.895Z,11.90
2023-01-07T22:34:06.497Z,12.20
2023-01-07T22:37:10.249Z,12.70
2023-01-07T22:39:47.264Z,12.90
2023-01-07T22:42:31.122Z,12.10
2023-01-07T22:45:15.337Z,12.00
2023-01-07T22:47:46.063Z,11.93
2023-01-07T22:50:14.746Z,12.77
2023-01-07T22:52:46.051Z,12.53
2023-01-07T22:55:13.281Z,13.10
2023-01-07T22:57:40.998Z,11.83
2023-01-07T23:00:15.546Z,11.63
2023-01-07T23:02:42.566Z,12.80
2023-01-07T23:05:09.585Z,12.67
2023-01-07T23:07:36.629Z,12.93
2023-01-07T23:10:03.985Z,12.10
2023-01-07T23:12:31.273Z,12.03
2023-01-07T23:14:58.250Z,12.47
2023-01-07T23:17:26.376Z,11.30
2023-01-07T23:19:53.324Z,11.97
2023-01-07T23:22:20.286Z,11.77
2023-01-07T23:24:47.262Z,11.70
2023-01-07T23:27:14.224Z,11.90
2023-01-07T23:30:10.256Z,11.03
2023-01-07T23:32:38.186Z,10.93
2023-01-07T23:35:05.596Z,11.33
2023-01-07T23:37:33.070Z,10.83
2023-01-07T23:40:00.128Z,10.53
2023-01-07T23:42:27.092Z,10.70
2023-01-07T23:44:54.137Z,10.10
2023-01-07T23:47:21.155Z,10.80
2023-01-07T23:49:48.144Z,10.60
2023-01-07T23:52:15.273Z,9.87
2023-01-07T23:54:42.338Z,9.90
2023-01-07T23:57:09.688Z,9.80
2023-01-07T23:59:36.801Z,9.50
